createdAt,value
2019-05-11T00:02:39.362Z,8.20
2019-05-11T00:06:42.435Z,8.00
2019-05-11T00:10:45.469Z,9.67
2019-05-11T00:14:48.578Z,9.17
2019-05-11T00:18:51.581Z,8.73
2019-05-11T00:22:54.647Z,8.07
2019-05-11T00:26:57.731Z,8.70
2019-05-11T00:31:00.735Z,8.53
2019-05-11T00:35:06.373Z,8.40
2019-05-11T00:39:09.372Z,8.43
2019-05-11T00:43:12.396Z,8.73
2019-05-11T00:47:15.416Z,8.30
2019-05-11T00:51:18.438Z,8.60
2019-05-11T00:55:21.443Z,8.10
2019-05-11T00:59:24.611Z,8.60
2019-05-11T01:03:27.683Z,7.97
2019-05-11T01:07:30.921Z,9.23
2019-05-11T01:11:33.959Z,10.10
2019-05-11T01:15:36.969Z,9.80
2019-05-11T01:19:40.000Z,10.90
2019-05-11T01:23:43.013Z,10.67
2019-05-11T01:27:46.019Z,10.80
2019-05-11T01:31:49.060Z,10.57
2019-05-11T01:35:52.827Z,9.53
2019-05-11T01:39:55.851Z,10.70
2019-05-11T01:43:58.872Z,11.20
2019-05-11T01:48:01.876Z,9.77
2019-05-11T01:52:04.879Z,11.07
2019-05-11T01:56:07.886Z,11.40
2019-05-11T02:00:11.196Z,10.90
2019-05-11T02:04:14.201Z,10.10
2019-05-11T02:08:17.205Z,11.87
2019-05-11T02:12:20.473Z,9.93
2019-05-11T02:16:23.497Z,10.97
2019-05-11T02:20:26.519Z,10.60
2019-05-11T02:24:29.712Z,9.83
2019-05-11T02:28:32.717Z,9.13
2019-05-11T02:32:35.787Z,9.93
2019-05-11T02:36:40.285Z,10.53
2019-05-11T02:40:43.295Z,10.10
2019-05-11T02:44:46.419Z,11.50
2019-05-11T02:48:49.417Z,12.20
2019-05-11T02:52:52.516Z,12.17
2019-05-11T02:56:55.520Z,10.37
2019-05-11T03:00:58.529Z,10.70
2019-05-11T03:05:05.548Z,10.43
2019-05-11T03:09:08.552Z,10.83
2019-05-11T03:13:11.557Z,13.60
2019-05-11T03:17:16.463Z,13.57
2019-05-11T03:21:19.460Z,15.70
2019-05-11T03:25:22.465Z,16.00
2019-05-11T03:29:25.484Z,15.10
2019-05-11T03:33:28.526Z,13.73
2019-05-11T03:37:32.900Z,12.33
2019-05-11T03:41:36.264Z,13.63
2019-05-11T03:45:39.390Z,12.97
2019-05-11T03:49:42.462Z,13.73
2019-05-11T03:53:45.571Z,11.50
2019-05-11T03:57:48.564Z,10.90
2019-05-11T04:01:51.577Z,12.03
2019-05-11T04:05:54.675Z,10.57
2019-05-11T04:09:57.681Z,13.47
2019-05-11T04:14:00.681Z,11.97
2019-05-11T04:18:03.691Z,11.93
2019-05-11T04:22:06.942Z,12.83
2019-05-11T04:26:09.948Z,10.80
2019-05-11T04:30:13.369Z,9.37
2019-05-11T04:34:16.407Z,10.77
2019-05-11T04:38:20.459Z,10.93
2019-05-11T04:42:23.467Z,12.60
2019-05-11T04:46:26.473Z,13.50
2019-05-11T04:50:29.511Z,12.83
2019-05-11T04:54:32.592Z,13.50
2019-05-11T04:58:35.628Z,16.40
2019-05-11T05:02:38.625Z,14.10
2019-05-11T05:06:41.685Z,10.90
2019-05-11T05:10:44.821Z,11.57
2019-05-11T05:14:47.822Z,11.47
2019-05-11T05:18:50.886Z,10.97
2019-05-11T05:22:53.893Z,8.90
2019-05-11T05:26:56.903Z,9.90
2019-05-11T05:30:59.912Z,9.87
2019-05-11T05:35:06.093Z,8.90
2019-05-11T05:39:10.541Z,8.73
2019-05-11T05:43:25.645Z,8.80
2019-05-11T05:47:18.460Z,8.27
2019-05-11T05:51:21.477Z,8.07
2019-05-11T05:55:24.496Z,39.30
2019-05-11T05:59:27.523Z,9.40
2019-05-11T06:03:30.533Z,8.80
2019-05-11T06:07:33.541Z,9.77
2019-05-11T06:11:36.751Z,10.23
2019-05-11T06:15:39.777Z,8.97
2019-05-11T06:19:42.920Z,8.73
2019-05-11T06:23:46.124Z,9.50
2019-05-11T06:27:49.159Z,8.30
2019-05-11T06:31:52.155Z,9.77
2019-05-11T06:35:55.632Z,12.47
2019-05-11T06:40:01.221Z,10.57
2019-05-11T06:44:04.407Z,12.33
2019-05-11T06:48:07.416Z,12.83
2019-05-11T06:52:10.588Z,12.00
2019-05-11T06:56:13.595Z,13.90
2019-05-11T07:00:16.798Z,11.20
2019-05-11T07:04:19.831Z,21.47
2019-05-11T07:08:23.001Z,17.57
2019-05-11T07:12:27.701Z,11.57
2019-05-11T07:16:31.006Z,9.67
2019-05-11T07:20:48.285Z,11.20
2019-05-11T07:24:38.984Z,9.47
2019-05-11T07:28:42.092Z,11.67
2019-05-11T07:32:45.099Z,10.93
2019-05-11T07:36:49.221Z,3.80
2019-05-11T07:40:53.315Z,10.30
2019-05-11T07:44:58.229Z,9.70
2019-05-11T07:49:01.481Z,11.13
2019-05-11T07:53:04.487Z,11.43
2019-05-11T07:57:07.973Z,9.07
2019-05-11T08:01:11.076Z,10.30
2019-05-11T08:05:14.085Z,9.57
2019-05-11T08:09:18.658Z,10.03
2019-05-11T08:13:21.895Z,9.00
2019-05-11T08:17:25.010Z,9.80
2019-05-11T08:21:28.522Z,8.03
2019-05-11T08:25:31.679Z,8.90
2019-05-11T08:29:34.689Z,9.10
2019-05-11T08:33:38.872Z,9.77
2019-05-11T08:37:42.150Z,9.83
2019-05-11T08:41:45.701Z,11.07
2019-05-11T08:45:48.803Z,10.43
2019-05-11T08:49:51.815Z,11.77
2019-05-11T08:53:54.827Z,11.70
2019-05-11T08:57:58.563Z,12.33
2019-05-11T09:02:01.810Z,13.20
2019-05-11T09:06:04.904Z,13.53
2019-05-11T09:10:08.347Z,12.30
2019-05-11T09:14:11.426Z,13.13
2019-05-11T09:18:14.508Z,11.13
2019-05-11T09:22:18.695Z,12.03
2019-05-11T09:26:21.968Z,11.30
2019-05-11T09:30:25.059Z,10.53
2019-05-11T09:34:28.833Z,9.67
2019-05-11T09:38:32.178Z,9.87
2019-05-11T09:42:35.699Z,9.73
2019-05-11T09:46:38.742Z,10.70
2019-05-11T09:50:41.761Z,9.70
2019-05-11T09:54:44.841Z,9.60
2019-05-11T09:58:48.251Z,10.13
2019-05-11T10:02:51.463Z,9.33
2019-05-11T10:06:54.607Z,10.20
2019-05-11T10:10:58.170Z,10.07
2019-05-11T10:15:01.601Z,10.53
2019-05-11T10:19:04.772Z,11.10
2019-05-11T10:23:08.460Z,11.67
2019-05-11T10:27:11.636Z,11.10
2019-05-11T10:31:14.643Z,9.53
2019-05-11T10:35:18.360Z,9.07
2019-05-11T10:39:21.769Z,9.57
2019-05-11T10:43:28.707Z,7.60
2019-05-11T10:47:31.604Z,6.30
2019-05-11T10:51:34.751Z,6.30
2019-05-11T10:55:38.629Z,7.47
2019-05-11T10:59:41.983Z,6.00
2019-05-11T11:03:44.987Z,5.67
2019-05-11T11:07:48.547Z,6.07
2019-05-11T11:11:51.732Z,5.13
2019-05-11T11:15:54.733Z,5.07
2019-05-11T11:19:58.130Z,4.50
2019-05-11T11:24:01.335Z,4.80
2019-05-11T11:28:04.341Z,5.00
2019-05-11T11:32:08.030Z,4.00
2019-05-11T11:36:11.596Z,3.97
2019-05-11T11:40:17.511Z,3.50
2019-05-11T11:44:21.168Z,4.70
2019-05-11T11:48:24.480Z,4.63
2019-05-11T11:52:27.763Z,4.80
2019-05-11T11:56:30.948Z,4.27
2019-05-11T12:00:33.953Z,4.97
2019-05-11T12:04:38.821Z,4.60
2019-05-11T12:08:41.982Z,4.70
2019-05-11T12:12:44.991Z,4.73
2019-05-11T12:17:03.643Z,5.10
2019-05-11T12:20:53.283Z,4.60
2019-05-11T12:24:58.753Z,3.57
2019-05-11T12:29:01.221Z,4.10
2019-05-11T12:33:04.261Z,4.50
2019-05-11T12:37:08.488Z,4.90
2019-05-11T12:41:11.643Z,4.53
2019-05-11T12:45:18.196Z,4.03
2019-05-11T12:49:21.383Z,4.27
2019-05-11T12:53:24.468Z,4.63
2019-05-11T12:57:28.153Z,4.07
2019-05-11T13:01:31.362Z,4.13
2019-05-11T13:05:34.564Z,4.70
2019-05-11T13:09:38.049Z,4.00
2019-05-11T13:13:41.209Z,4.27
2019-05-11T13:17:44.227Z,4.40
2019-05-11T13:21:48.677Z,4.40
2019-05-11T13:25:51.827Z,5.10
2019-05-11T13:29:54.864Z,4.47
2019-05-11T13:33:58.551Z,4.00
2019-05-11T13:38:01.689Z,4.57
2019-05-11T13:42:04.695Z,4.30
2019-05-11T13:46:09.985Z,3.70
2019-05-11T13:50:12.989Z,4.00
2019-05-11T13:54:18.259Z,4.90
2019-05-11T13:58:20.901Z,3.20
2019-05-11T14:02:23.932Z,3.60
2019-05-11T14:06:28.901Z,3.80
2019-05-11T14:10:31.847Z,3.67
2019-05-11T14:14:34.935Z,4.10
2019-05-11T14:18:38.670Z,4.20
2019-05-11T14:22:41.836Z,4.00
2019-05-11T14:26:44.839Z,4.30
2019-05-11T14:30:48.592Z,4.53
2019-05-11T14:34:51.832Z,4.17
2019-05-11T14:38:54.831Z,4.40
2019-05-11T14:42:58.258Z,4.80
2019-05-11T14:47:02.759Z,8.80
2019-05-11T14:51:05.761Z,6.20
2019-05-11T14:55:09.092Z,4.00
2019-05-11T14:59:12.089Z,3.90
2019-05-11T15:03:15.084Z,3.30
2019-05-11T15:07:18.086Z,4.07
2019-05-11T15:11:21.390Z,5.90
2019-05-11T15:15:24.419Z,4.83
2019-05-11T15:19:27.864Z,4.03
2019-05-11T15:23:31.040Z,4.80
2019-05-11T15:27:34.052Z,5.37
2019-05-11T15:31:38.122Z,6.07
2019-05-11T15:35:41.387Z,6.13
2019-05-11T15:39:44.409Z,7.00
2019-05-11T15:43:48.047Z,6.10
2019-05-11T15:47:52.491Z,7.43
2019-05-11T15:51:57.759Z,7.10
2019-05-11T15:56:00.723Z,9.00
2019-05-11T16:00:05.241Z,9.50
2019-05-11T16:04:09.085Z,8.67
2019-05-11T16:08:12.347Z,8.37
2019-05-11T16:12:15.515Z,9.43
2019-05-11T16:16:18.535Z,7.77
2019-05-11T16:20:21.652Z,7.60
2019-05-11T16:24:24.662Z,8.70
2019-05-11T16:28:30.357Z,8.93
2019-05-11T16:32:32.697Z,8.33
2019-05-11T16:36:35.791Z,6.70
2019-05-11T16:40:38.811Z,7.90
2019-05-11T16:44:41.824Z,7.20
2019-05-11T16:48:45.679Z,7.57
2019-05-11T16:52:48.678Z,17.30
2019-05-11T16:56:51.678Z,9.67
2019-05-11T17:00:54.673Z,8.03
2019-05-11T17:04:58.232Z,7.80
2019-05-11T17:09:01.239Z,6.93
2019-05-11T17:13:04.255Z,7.23
2019-05-11T17:17:08.204Z,6.43
2019-05-11T17:21:11.501Z,5.73
2019-05-11T17:25:14.490Z,5.47
2019-05-11T17:29:18.574Z,5.60
2019-05-11T17:33:21.848Z,5.20
2019-05-11T17:37:24.872Z,5.63
2019-05-11T17:41:28.042Z,4.87
2019-05-11T17:45:31.102Z,4.90
2019-05-11T17:49:34.933Z,4.00
2019-05-11T17:53:38.011Z,4.03
2019-05-11T17:57:41.488Z,3.60
2019-05-11T18:01:44.486Z,4.33
2019-05-11T18:05:48.553Z,4.27
2019-05-11T18:09:51.694Z,4.33
2019-05-11T18:13:54.925Z,3.83
2019-05-11T18:17:58.807Z,4.27
2019-05-11T18:22:02.045Z,5.57
2019-05-11T18:26:05.049Z,6.50
2019-05-11T18:30:08.809Z,5.47
2019-05-11T18:34:11.964Z,4.83
2019-05-11T18:38:14.973Z,5.83
2019-05-11T18:42:18.510Z,5.40
2019-05-11T18:46:21.704Z,6.93
2019-05-11T18:50:31.169Z,6.30
2019-05-11T18:54:31.669Z,5.87
2019-05-11T18:58:34.752Z,6.63
2019-05-11T19:02:38.716Z,6.27
2019-05-11T19:06:41.868Z,7.50
2019-05-11T19:10:44.997Z,5.83
2019-05-11T19:14:48.125Z,5.80
2019-05-11T19:18:51.185Z,6.57
2019-05-11T19:22:54.180Z,7.07
2019-05-11T19:26:58.814Z,6.03
2019-05-11T19:31:01.916Z,7.03
2019-05-11T19:35:05.004Z,7.47
2019-05-11T19:39:08.939Z,7.63
2019-05-11T19:43:12.463Z,6.30
2019-05-11T19:47:17.911Z,8.00
2019-05-11T19:51:22.168Z,15.20
2019-05-11T19:55:25.239Z,16.93
2019-05-11T19:59:28.245Z,6.37
2019-05-11T20:03:31.239Z,7.43
2019-05-11T20:07:34.244Z,7.43
2019-05-11T20:11:38.383Z,7.90
2019-05-11T20:15:41.581Z,7.60
2019-05-11T20:19:44.591Z,7.93
2019-05-11T20:23:48.531Z,9.70
2019-05-11T20:27:51.631Z,8.80
2019-05-11T20:31:54.642Z,8.60
2019-05-11T20:35:58.226Z,10.20
2019-05-11T20:40:01.345Z,9.13
2019-05-11T20:44:04.343Z,7.40
2019-05-11T20:48:07.907Z,9.20
2019-05-11T20:52:11.540Z,8.87
2019-05-11T20:56:14.561Z,9.33
2019-05-11T21:00:18.752Z,9.40
2019-05-11T21:04:22.080Z,8.07
2019-05-11T21:08:25.092Z,9.17
2019-05-11T21:12:28.885Z,9.50
2019-05-11T21:16:32.029Z,8.60
2019-05-11T21:20:35.019Z,9.30
2019-05-11T21:24:38.041Z,9.37
2019-05-11T21:28:41.085Z,8.50
2019-05-11T21:32:44.208Z,9.70
2019-05-11T21:36:48.341Z,9.17
2019-05-11T21:40:51.556Z,8.90
2019-05-11T21:44:54.662Z,8.70
2019-05-11T21:48:58.304Z,7.53
2019-05-11T21:53:02.527Z,7.17
2019-05-11T21:57:05.544Z,6.27
2019-05-11T22:01:08.558Z,6.33
2019-05-11T22:05:12.366Z,6.40
2019-05-11T22:09:15.488Z,6.53
2019-05-11T22:13:20.615Z,6.93
2019-05-11T22:17:23.396Z,6.90
2019-05-11T22:21:28.039Z,6.30
2019-05-11T22:25:31.216Z,7.17
2019-05-11T22:29:34.216Z,6.77
2019-05-11T22:33:38.550Z,6.83
2019-05-11T22:37:41.754Z,7.30
2019-05-11T22:41:44.770Z,6.17
2019-05-11T22:45:48.633Z,7.00
2019-05-11T22:49:51.694Z,8.00
2019-05-11T22:53:56.274Z,7.73
2019-05-11T22:57:59.372Z,8.93
2019-05-11T23:02:02.391Z,10.57
2019-05-11T23:06:05.396Z,8.87
2019-05-11T23:10:08.805Z,10.63
2019-05-11T23:14:11.918Z,8.87
2019-05-11T23:18:14.913Z,9.63
2019-05-11T23:22:18.341Z,9.80
2019-05-11T23:26:21.462Z,10.17
2019-05-11T23:30:24.633Z,9.33
2019-05-11T23:34:28.266Z,11.50
2019-05-11T23:38:31.559Z,11.53
2019-05-11T23:42:34.736Z,11.73
2019-05-11T23:46:38.675Z,14.67
2019-05-11T23:50:41.853Z,12.73
2019-05-11T23:54:48.447Z,14.17
2019-05-11T23:58:51.593Z,16.17
